createdAt,value
2023-12-16T00:00:13.671Z,3.10
2023-12-16T00:00:45.423Z,3.22
2023-12-16T00:01:17.105Z,3.58
2023-12-16T00:01:58.412Z,4.20
2023-12-16T00:02:34.670Z,3.77
2023-12-16T00:03:06.277Z,2.80
2023-12-16T00:03:37.818Z,3.28
2023-12-16T00:04:09.405Z,3.28
2023-12-16T00:04:42.205Z,3.10
2023-12-16T00:06:02.984Z,2.85
2023-12-16T00:06:34.625Z,2.90
2023-12-16T00:07:06.101Z,3.40
2023-12-16T00:07:38.096Z,2.85
2023-12-16T00:08:09.956Z,4.03
2023-12-16T00:08:41.413Z,3.58
2023-12-16T00:09:13.690Z,3.10
2023-12-16T00:09:45.157Z,5.35
2023-12-16T00:10:17.818Z,3.92
2023-12-16T00:10:52.775Z,2.95
2023-12-16T00:11:44.752Z,3.17
2023-12-16T00:12:17.050Z,3.20
2023-12-16T00:12:48.938Z,3.95
2023-12-16T00:13:20.854Z,3.63
2023-12-16T00:13:52.337Z,2.90
2023-12-16T00:14:24.039Z,3.13
2023-12-16T00:14:55.560Z,3.05
2023-12-16T00:15:27.258Z,3.33
2023-12-16T00:15:58.769Z,3.72
2023-12-16T00:16:30.437Z,3.55
2023-12-16T00:17:02.247Z,2.75
2023-12-16T00:17:33.770Z,2.80
2023-12-16T00:18:05.540Z,3.25
2023-12-16T00:18:38.728Z,2.78
2023-12-16T00:19:10.428Z,2.83
2023-12-16T00:19:41.966Z,2.70
2023-12-16T00:20:13.618Z,3.10
2023-12-16T00:20:45.190Z,3.78
2023-12-16T00:21:17.472Z,2.95
2023-12-16T00:21:49.021Z,3.47
2023-12-16T00:22:20.590Z,4.00
2023-12-16T00:23:10.879Z,3.33
2023-12-16T00:23:42.438Z,3.30
2023-12-16T00:24:13.908Z,3.78
2023-12-16T00:24:45.414Z,3.60
2023-12-16T00:25:17.078Z,3.33
2023-12-16T00:25:48.608Z,3.83
2023-12-16T00:26:38.659Z,3.05
2023-12-16T00:27:10.162Z,2.88
2023-12-16T00:27:42.388Z,2.60
2023-12-16T00:28:14.047Z,3.30
2023-12-16T00:28:45.624Z,3.67
2023-12-16T00:29:17.273Z,3.38
2023-12-16T00:29:49.363Z,3.47
2023-12-16T00:30:39.658Z,4.23
2023-12-16T00:31:11.331Z,3.17
2023-12-16T00:31:43.094Z,2.90
2023-12-16T00:32:14.619Z,3.70
2023-12-16T00:32:46.237Z,5.70
2023-12-16T00:33:17.828Z,3.90
2023-12-16T00:33:49.574Z,3.10
2023-12-16T00:34:21.245Z,4.97
2023-12-16T00:34:52.809Z,2.88
2023-12-16T00:35:24.236Z,2.95
2023-12-16T00:35:55.727Z,3.77
2023-12-16T00:36:27.234Z,3.50
2023-12-16T00:36:58.717Z,2.50
2023-12-16T00:37:30.217Z,3.33
2023-12-16T00:38:01.804Z,3.42
2023-12-16T00:38:33.355Z,3.42
2023-12-16T00:39:04.813Z,3.67
2023-12-16T00:39:36.303Z,3.63
2023-12-16T00:40:08.740Z,3.05
2023-12-16T00:40:40.249Z,2.92
2023-12-16T00:41:11.779Z,3.60
2023-12-16T00:41:43.974Z,2.85
2023-12-16T00:42:15.510Z,2.80
2023-12-16T00:42:47.060Z,3.53
2023-12-16T00:43:18.597Z,3.08
2023-12-16T00:43:50.140Z,2.97
2023-12-16T00:44:21.672Z,3.45
2023-12-16T00:44:53.182Z,3.10
2023-12-16T00:45:43.147Z,2.92
2023-12-16T00:46:14.999Z,2.78
2023-12-16T00:46:46.450Z,3.40
2023-12-16T00:47:18.118Z,2.83
2023-12-16T00:47:49.796Z,3.35
2023-12-16T00:48:21.403Z,2.83
2023-12-16T00:48:53.030Z,2.85
2023-12-16T00:49:24.853Z,3.10
2023-12-16T00:49:56.728Z,3.80
2023-12-16T00:50:28.313Z,3.45
2023-12-16T00:50:59.793Z,3.20
2023-12-16T00:51:31.321Z,3.88
2023-12-16T00:52:04.444Z,3.23
2023-12-16T00:52:36.094Z,3.08
2023-12-16T00:53:07.733Z,3.35
2023-12-16T00:53:39.250Z,3.22
2023-12-16T00:55:18.357Z,3.25
2023-12-16T00:55:49.889Z,3.08
2023-12-16T00:56:24.138Z,3.53
2023-12-16T00:56:55.944Z,3.65
2023-12-16T00:57:27.497Z,3.40
2023-12-16T00:57:59.007Z,2.80
2023-12-16T00:58:30.484Z,3.15
2023-12-16T00:59:01.939Z,3.35
2023-12-16T00:59:33.659Z,2.65
2023-12-16T01:00:06.742Z,2.95
2023-12-16T01:00:38.328Z,2.80
2023-12-16T01:01:09.872Z,2.42
2023-12-16T01:01:41.757Z,2.80
2023-12-16T01:02:31.649Z,3.13
2023-12-16T01:03:03.210Z,2.80
2023-12-16T01:03:35.724Z,2.70
2023-12-16T01:04:07.322Z,3.13
2023-12-16T01:04:38.889Z,3.28
2023-12-16T01:05:29.670Z,3.42
2023-12-16T01:06:01.222Z,3.65
2023-12-16T01:06:32.956Z,3.58
2023-12-16T01:07:23.105Z,2.53
2023-12-16T01:07:54.579Z,3.38
2023-12-16T01:08:26.299Z,3.50
2023-12-16T01:08:57.744Z,2.80
2023-12-16T01:09:29.389Z,3.23
2023-12-16T01:10:01.005Z,2.90
2023-12-16T01:10:32.665Z,2.67
2023-12-16T01:11:04.440Z,2.75
2023-12-16T01:11:35.983Z,3.28
2023-12-16T01:12:07.671Z,3.10
2023-12-16T01:12:39.184Z,3.47
2023-12-16T01:13:10.846Z,3.13
2023-12-16T01:13:42.357Z,2.78
2023-12-16T01:14:13.924Z,3.10
2023-12-16T01:14:45.448Z,3.47
2023-12-16T01:15:17.089Z,4.00
2023-12-16T01:15:48.593Z,2.70
2023-12-16T01:16:20.740Z,3.00
2023-12-16T01:16:52.261Z,3.15
2023-12-16T01:17:24.141Z,3.40
2023-12-16T01:17:55.801Z,3.17
2023-12-16T01:18:45.903Z,3.17
2023-12-16T01:19:18.019Z,3.15
2023-12-16T01:19:49.603Z,2.42
2023-12-16T01:21:10.614Z,3.10
2023-12-16T01:21:43.495Z,2.65
2023-12-16T01:22:15.145Z,3.20
2023-12-16T01:22:46.673Z,3.10
2023-12-16T01:23:18.130Z,3.10
2023-12-16T01:23:49.673Z,3.15
2023-12-16T01:24:21.189Z,2.58
2023-12-16T01:24:52.788Z,2.70
2023-12-16T01:25:24.364Z,3.97
2023-12-16T01:25:55.915Z,2.93
2023-12-16T01:26:27.423Z,3.45
2023-12-16T01:26:58.983Z,3.38
2023-12-16T01:27:30.544Z,3.47
2023-12-16T01:28:02.059Z,3.22
2023-12-16T01:28:34.569Z,3.28
2023-12-16T01:29:06.067Z,3.47
2023-12-16T01:29:37.920Z,3.35
2023-12-16T01:30:10.117Z,3.50
2023-12-16T01:30:41.732Z,3.58
2023-12-16T01:31:13.358Z,3.70
2023-12-16T01:31:44.910Z,3.53
2023-12-16T01:32:16.520Z,2.78
2023-12-16T01:32:47.996Z,3.13
2023-12-16T01:33:38.287Z,3.50
2023-12-16T01:34:10.039Z,2.50
2023-12-16T01:34:42.217Z,3.78
2023-12-16T01:35:13.892Z,2.70
2023-12-16T01:35:45.346Z,3.47
2023-12-16T01:36:35.372Z,2.60
2023-12-16T01:37:06.995Z,2.70
2023-12-16T01:37:38.725Z,3.10
2023-12-16T01:38:10.404Z,2.30
2023-12-16T01:38:41.913Z,4.47
2023-12-16T01:39:13.824Z,2.83
2023-12-16T01:39:45.366Z,2.63
2023-12-16T01:40:17.158Z,2.83
2023-12-16T01:40:49.004Z,2.97
2023-12-16T01:41:21.184Z,3.75
2023-12-16T01:41:52.718Z,2.97
2023-12-16T01:42:24.188Z,2.97
2023-12-16T01:42:56.670Z,2.45
2023-12-16T01:43:28.223Z,3.45
2023-12-16T01:43:59.726Z,3.88
2023-12-16T01:44:31.540Z,2.88
2023-12-16T01:45:05.197Z,3.80
2023-12-16T01:45:36.824Z,2.80
2023-12-16T01:46:08.752Z,2.88
2023-12-16T01:46:59.414Z,3.55
2023-12-16T01:47:32.151Z,3.15
2023-12-16T01:48:04.555Z,3.07
2023-12-16T01:48:36.403Z,2.85
2023-12-16T01:49:08.600Z,3.05
2023-12-16T01:49:40.495Z,4.05
2023-12-16T01:50:14.057Z,3.75
2023-12-16T01:50:45.648Z,3.22
2023-12-16T01:51:18.549Z,4.00
2023-12-16T01:51:50.980Z,2.90
2023-12-16T01:52:22.652Z,3.00
2023-12-16T01:52:54.861Z,1.90
2023-12-16T01:53:28.178Z,3.33
2023-12-16T01:54:00.619Z,3.53
2023-12-16T01:54:34.058Z,2.75
2023-12-16T01:55:06.032Z,3.58
2023-12-16T01:55:37.527Z,3.58
2023-12-16T01:56:09.950Z,2.70
2023-12-16T01:56:41.675Z,2.80
2023-12-16T01:57:13.280Z,3.53
2023-12-16T01:57:45.857Z,2.92
2023-12-16T01:58:17.845Z,2.80
2023-12-16T01:58:50.784Z,3.23
2023-12-16T01:59:22.556Z,3.35
2023-12-16T01:59:54.127Z,3.03
2023-12-16T02:00:27.728Z,3.33
2023-12-16T02:00:59.401Z,2.78
2023-12-16T02:01:31.136Z,4.10
2023-12-16T02:02:04.268Z,3.25
2023-12-16T02:02:36.117Z,3.20
2023-12-16T02:03:57.520Z,2.95
2023-12-16T02:04:29.238Z,3.33
2023-12-16T02:05:01.041Z,3.20
2023-12-16T02:05:32.678Z,3.88
2023-12-16T02:06:05.105Z,3.50
2023-12-16T02:06:40.116Z,2.95
2023-12-16T02:07:11.663Z,3.10
2023-12-16T02:07:44.832Z,3.30
2023-12-16T02:08:16.537Z,3.15
2023-12-16T02:08:48.473Z,3.50
2023-12-16T02:09:21.085Z,3.63
2023-12-16T02:09:53.034Z,4.00
2023-12-16T02:10:24.681Z,3.35
2023-12-16T02:10:57.538Z,2.88
2023-12-16T02:11:28.987Z,2.92
2023-12-16T02:12:00.634Z,3.63
2023-12-16T02:12:35.177Z,3.17
2023-12-16T02:13:06.701Z,3.75
2023-12-16T02:13:38.489Z,3.00
2023-12-16T02:14:28.433Z,3.38
2023-12-16T02:15:18.583Z,3.08
2023-12-16T02:15:50.041Z,2.83
2023-12-16T02:16:21.772Z,3.30
2023-12-16T02:16:53.488Z,3.33
2023-12-16T02:17:25.069Z,3.90
2023-12-16T02:17:57.431Z,3.38
2023-12-16T02:18:29.035Z,2.83
2023-12-16T02:19:01.427Z,2.75
2023-12-16T02:19:34.418Z,4.63
2023-12-16T02:20:06.816Z,3.88
2023-12-16T02:20:38.646Z,3.58
2023-12-16T02:21:10.116Z,3.10
2023-12-16T02:21:41.583Z,4.05
2023-12-16T02:22:13.138Z,3.67
2023-12-16T02:22:48.126Z,3.78
2023-12-16T02:23:19.676Z,2.92
2023-12-16T02:23:51.152Z,3.67
2023-12-16T02:24:43.290Z,4.00
2023-12-16T02:25:16.021Z,2.95
2023-12-16T02:25:47.712Z,4.13
2023-12-16T02:26:19.174Z,3.63
2023-12-16T02:26:50.752Z,3.97
2023-12-16T02:27:22.234Z,3.08
2023-12-16T02:27:53.752Z,4.53
2023-12-16T02:28:25.236Z,3.05
2023-12-16T02:28:56.749Z,3.75
2023-12-16T02:29:28.243Z,4.05
2023-12-16T02:29:59.755Z,4.93
2023-12-16T02:30:31.337Z,3.72
2023-12-16T02:31:02.973Z,3.90
2023-12-16T02:31:34.444Z,3.42
2023-12-16T02:32:07.111Z,2.93
2023-12-16T02:32:39.471Z,3.17
2023-12-16T02:33:11.137Z,4.07
2023-12-16T02:33:42.949Z,3.15
2023-12-16T02:35:03.873Z,2.85
2023-12-16T02:35:35.396Z,3.95
2023-12-16T02:36:07.866Z,3.92
2023-12-16T02:36:39.510Z,4.05
2023-12-16T02:37:12.081Z,2.85
2023-12-16T02:37:43.701Z,3.87
2023-12-16T02:38:15.329Z,4.07
2023-12-16T02:38:46.861Z,3.75
2023-12-16T02:39:18.421Z,3.78
2023-12-16T02:39:50.026Z,3.47
2023-12-16T02:40:21.612Z,3.53
2023-12-16T02:40:53.141Z,2.80
2023-12-16T02:41:24.654Z,3.67
2023-12-16T02:41:56.122Z,3.85
2023-12-16T02:42:28.181Z,3.60
2023-12-16T02:42:59.891Z,4.20
2023-12-16T02:43:31.497Z,2.72
2023-12-16T02:44:03.113Z,2.75
2023-12-16T02:44:34.584Z,4.68
2023-12-16T02:45:06.384Z,3.25
2023-12-16T02:45:37.900Z,3.80
2023-12-16T02:46:10.890Z,3.13
2023-12-16T02:46:42.429Z,3.53
2023-12-16T02:47:13.973Z,3.78
2023-12-16T02:47:45.640Z,3.83
2023-12-16T02:48:17.365Z,3.63
2023-12-16T02:48:48.965Z,3.85
2023-12-16T02:49:20.620Z,3.45
2023-12-16T02:49:52.426Z,3.78
2023-12-16T02:50:23.939Z,3.70
2023-12-16T02:50:55.465Z,3.75
2023-12-16T02:51:27.383Z,4.15
2023-12-16T02:52:00.131Z,3.95
2023-12-16T02:52:31.872Z,4.00
2023-12-16T02:53:03.462Z,2.83
2023-12-16T02:53:34.926Z,4.70
2023-12-16T02:54:06.412Z,4.68
2023-12-16T02:54:37.932Z,3.40
2023-12-16T02:55:09.724Z,3.88
2023-12-16T02:55:41.336Z,5.00
2023-12-16T02:56:13.668Z,3.80
2023-12-16T02:56:45.271Z,3.28
2023-12-16T02:57:16.739Z,4.13
2023-12-16T02:57:48.258Z,3.22
2023-12-16T02:58:20.175Z,3.28
2023-12-16T02:58:51.684Z,3.97
2023-12-16T02:59:41.833Z,3.80
2023-12-16T03:00:13.828Z,4.40
2023-12-16T03:00:45.433Z,3.88
2023-12-16T03:01:17.620Z,3.97
2023-12-16T03:01:49.263Z,3.80
2023-12-16T03:02:20.780Z,4.72
2023-12-16T03:02:52.449Z,3.60
2023-12-16T03:03:23.987Z,3.53
2023-12-16T03:03:55.609Z,3.90
2023-12-16T03:04:27.147Z,3.50
2023-12-16T03:04:58.691Z,4.35
2023-12-16T03:05:30.317Z,3.15
2023-12-16T03:06:06.194Z,3.72
2023-12-16T03:06:43.737Z,4.72
2023-12-16T03:07:15.326Z,3.72
2023-12-16T03:07:46.824Z,4.07
2023-12-16T03:08:18.292Z,4.47
2023-12-16T03:08:49.859Z,4.18
2023-12-16T03:09:21.407Z,3.53
2023-12-16T03:09:52.979Z,4.10
2023-12-16T03:10:25.137Z,3.70
2023-12-16T03:10:56.744Z,3.63
2023-12-16T03:11:28.508Z,3.75
2023-12-16T03:12:01.868Z,4.40
2023-12-16T03:12:33.597Z,4.28
2023-12-16T03:13:05.090Z,3.63
2023-12-16T03:13:36.773Z,4.68
2023-12-16T03:14:08.288Z,5.00
2023-12-16T03:14:42.337Z,3.90
2023-12-16T03:15:13.957Z,4.30
2023-12-16T03:15:45.560Z,5.75
2023-12-16T03:16:17.081Z,4.60
2023-12-16T03:16:48.604Z,4.43
2023-12-16T03:17:20.111Z,4.22
2023-12-16T03:17:52.999Z,4.93
2023-12-16T03:18:24.614Z,4.60
2023-12-16T03:18:56.199Z,4.53
2023-12-16T03:19:28.846Z,4.05
2023-12-16T03:20:00.392Z,3.50
2023-12-16T03:20:31.911Z,4.33
2023-12-16T03:21:06.226Z,5.47
2023-12-16T03:21:38.033Z,3.83
2023-12-16T03:22:09.841Z,4.78
2023-12-16T03:22:41.415Z,4.65
2023-12-16T03:23:12.990Z,4.93
2023-12-16T03:23:44.453Z,5.43
2023-12-16T03:24:16.461Z,4.43
2023-12-16T03:24:48.227Z,4.38
2023-12-16T03:25:20.577Z,5.22
2023-12-16T03:25:52.145Z,5.50
2023-12-16T03:26:23.641Z,4.13
2023-12-16T03:26:55.130Z,4.82
2023-12-16T03:27:26.751Z,4.88
2023-12-16T03:27:58.266Z,5.13
2023-12-16T03:28:29.973Z,4.60
2023-12-16T03:29:01.445Z,4.15
2023-12-16T03:29:32.982Z,4.03
2023-12-16T03:30:05.172Z,4.47
2023-12-16T03:30:39.723Z,4.80
2023-12-16T03:31:29.786Z,4.93
2023-12-16T03:32:01.297Z,5.30
2023-12-16T03:32:32.811Z,3.92
2023-12-16T03:33:04.441Z,4.53
2023-12-16T03:33:36.071Z,3.75
2023-12-16T03:34:07.808Z,4.43
2023-12-16T03:34:39.485Z,4.53
2023-12-16T03:35:11.022Z,4.38
2023-12-16T03:35:42.468Z,3.90
2023-12-16T03:36:14.174Z,4.50
2023-12-16T03:36:45.704Z,4.17
2023-12-16T03:37:17.335Z,4.18
2023-12-16T03:37:49.062Z,4.75
2023-12-16T03:38:20.578Z,5.00
2023-12-16T03:38:53.357Z,5.00
2023-12-16T03:39:24.880Z,4.68
2023-12-16T03:39:56.407Z,4.75
2023-12-16T03:40:28.977Z,4.93
2023-12-16T03:41:00.757Z,5.05
2023-12-16T03:41:32.867Z,4.72
2023-12-16T03:42:04.609Z,4.47
2023-12-16T03:42:54.850Z,5.03
2023-12-16T03:44:15.047Z,5.13
2023-12-16T03:44:48.257Z,5.57
2023-12-16T03:45:19.876Z,4.38
2023-12-16T03:45:51.437Z,5.47
2023-12-16T03:46:23.156Z,4.32
2023-12-16T03:46:54.690Z,5.40
2023-12-16T03:47:26.400Z,5.05
2023-12-16T03:47:57.939Z,5.60
2023-12-16T03:48:29.717Z,4.40
2023-12-16T03:49:20.164Z,4.38
2023-12-16T03:49:51.797Z,4.97
2023-12-16T03:50:23.298Z,4.55
2023-12-16T03:50:54.790Z,5.03
2023-12-16T03:51:26.502Z,4.32
2023-12-16T03:51:58.041Z,5.30
2023-12-16T03:52:29.539Z,4.32
2023-12-16T03:53:00.995Z,5.05
2023-12-16T03:53:32.551Z,4.43
2023-12-16T03:54:04.650Z,4.13
2023-12-16T03:54:36.460Z,4.57
2023-12-16T03:55:08.335Z,4.90
2023-12-16T03:55:39.837Z,4.60
2023-12-16T03:56:11.418Z,4.13
2023-12-16T03:56:42.932Z,4.82
2023-12-16T03:57:14.638Z,6.63
2023-12-16T03:57:46.207Z,6.03
2023-12-16T03:58:17.780Z,5.05
2023-12-16T03:58:49.262Z,6.50
2023-12-16T03:59:20.776Z,4.60
2023-12-16T03:59:52.299Z,5.50
2023-12-16T04:00:23.793Z,3.92
2023-12-16T04:00:55.329Z,5.05
2023-12-16T04:01:27.818Z,4.63
2023-12-16T04:01:59.514Z,5.07
2023-12-16T04:02:31.141Z,5.38
2023-12-16T04:03:03.479Z,4.00
2023-12-16T04:03:35.893Z,5.53
2023-12-16T04:04:07.396Z,4.67
2023-12-16T04:04:38.921Z,4.43
2023-12-16T04:05:10.442Z,4.35
2023-12-16T04:05:43.485Z,5.78
2023-12-16T04:06:15.522Z,5.00
2023-12-16T04:06:47.906Z,4.93
2023-12-16T04:07:19.439Z,5.60
2023-12-16T04:07:50.929Z,5.57
2023-12-16T04:08:22.479Z,5.43
2023-12-16T04:08:54.814Z,5.32
2023-12-16T04:09:26.413Z,6.13
2023-12-16T04:09:58.136Z,5.18
2023-12-16T04:10:29.738Z,5.63
2023-12-16T04:11:01.264Z,5.18
2023-12-16T04:11:32.815Z,5.72
2023-12-16T04:12:04.432Z,4.53
2023-12-16T04:12:35.921Z,5.25
2023-12-16T04:13:25.877Z,4.15
2023-12-16T04:13:57.417Z,4.75
2023-12-16T04:14:28.904Z,5.13
2023-12-16T04:15:00.495Z,5.70
2023-12-16T04:15:32.479Z,5.70
2023-12-16T04:16:05.381Z,6.55
2023-12-16T04:16:38.379Z,5.35
2023-12-16T04:17:09.907Z,4.80
2023-12-16T04:18:32.168Z,5.40
2023-12-16T04:19:04.207Z,5.45
2023-12-16T04:19:35.698Z,5.82
2023-12-16T04:20:07.905Z,6.00
2023-12-16T04:20:39.335Z,4.90
2023-12-16T04:21:11.107Z,4.63
2023-12-16T04:21:42.605Z,4.68
2023-12-16T04:22:32.755Z,5.03
2023-12-16T04:23:04.285Z,6.25
2023-12-16T04:23:35.817Z,5.43
2023-12-16T04:24:07.778Z,4.75
2023-12-16T04:24:39.258Z,5.05
2023-12-16T04:25:12.169Z,5.55
2023-12-16T04:25:43.952Z,5.80
2023-12-16T04:26:15.502Z,5.80
2023-12-16T04:26:46.985Z,6.75
2023-12-16T04:27:18.479Z,5.90
2023-12-16T04:27:50.019Z,6.53
2023-12-16T04:28:21.715Z,5.80
2023-12-16T04:28:53.273Z,5.47
2023-12-16T04:29:24.806Z,5.13
2023-12-16T04:29:56.297Z,5.72
2023-12-16T04:30:27.829Z,5.88
2023-12-16T04:30:59.537Z,5.60
2023-12-16T04:31:31.196Z,5.13
2023-12-16T04:32:02.806Z,4.90
2023-12-16T04:32:34.471Z,5.47
2023-12-16T04:33:06.011Z,5.90
2023-12-16T04:33:37.519Z,5.30
2023-12-16T04:34:09.573Z,6.70
2023-12-16T04:34:41.213Z,6.28
2023-12-16T04:35:31.292Z,6.47
2023-12-16T04:36:02.960Z,6.55
2023-12-16T04:36:34.633Z,5.18
2023-12-16T04:37:06.176Z,5.40
2023-12-16T04:37:38.063Z,5.63
2023-12-16T04:38:10.598Z,5.45
2023-12-16T04:38:42.421Z,5.07
2023-12-16T04:39:14.112Z,5.75
2023-12-16T04:39:45.620Z,6.28
2023-12-16T04:40:17.168Z,5.78
2023-12-16T04:40:48.676Z,5.35
2023-12-16T04:41:20.248Z,6.53
2023-12-16T04:41:51.936Z,4.95
2023-12-16T04:42:42.211Z,5.20
2023-12-16T04:43:13.776Z,5.13
2023-12-16T04:43:45.244Z,5.80
2023-12-16T04:44:16.897Z,5.60
2023-12-16T04:45:06.796Z,6.95
2023-12-16T04:45:38.516Z,5.93
2023-12-16T04:46:10.038Z,5.05
2023-12-16T04:46:41.628Z,4.72
2023-12-16T04:47:13.246Z,6.05
2023-12-16T04:47:44.819Z,6.15
2023-12-16T04:48:16.607Z,5.90
2023-12-16T04:48:48.328Z,5.72
2023-12-16T04:49:20.159Z,6.07
2023-12-16T04:49:51.838Z,5.38
2023-12-16T04:50:23.401Z,6.25
2023-12-16T04:50:54.893Z,6.38
2023-12-16T04:51:26.361Z,5.10
2023-12-16T04:51:57.810Z,6.65
2023-12-16T04:52:29.397Z,5.47
2023-12-16T04:53:19.719Z,5.38
2023-12-16T04:54:42.320Z,5.43
2023-12-16T04:55:13.994Z,5.35
2023-12-16T04:55:45.490Z,5.40
2023-12-16T04:56:16.940Z,5.70
2023-12-16T04:56:51.781Z,6.50
2023-12-16T04:57:23.215Z,5.80
2023-12-16T04:57:54.661Z,5.85
2023-12-16T04:58:29.558Z,5.90
2023-12-16T04:59:01.163Z,5.80
2023-12-16T04:59:32.638Z,5.90
2023-12-16T05:00:05.907Z,6.05
2023-12-16T05:00:37.357Z,6.57
2023-12-16T05:01:08.977Z,6.35
2023-12-16T05:01:40.952Z,6.75
2023-12-16T05:02:12.666Z,5.35
2023-12-16T05:02:44.168Z,5.95
2023-12-16T05:03:17.016Z,6.07
2023-12-16T05:03:49.007Z,6.72
2023-12-16T05:04:20.796Z,6.97
2023-12-16T05:04:52.332Z,5.93
2023-12-16T05:05:23.920Z,5.65
2023-12-16T05:05:56.031Z,5.72
2023-12-16T05:06:27.535Z,7.05
2023-12-16T05:07:17.798Z,5.97
2023-12-16T05:07:49.272Z,5.63
2023-12-16T05:08:20.902Z,6.60
2023-12-16T05:08:52.506Z,5.80
2023-12-16T05:09:24.010Z,6.53
2023-12-16T05:09:55.511Z,5.60
2023-12-16T05:10:27.089Z,5.93
2023-12-16T05:10:58.665Z,5.57
2023-12-16T05:11:30.468Z,7.13
2023-12-16T05:12:01.902Z,4.97
2023-12-16T05:12:35.872Z,6.03
2023-12-16T05:13:13.930Z,5.30
2023-12-16T05:13:45.387Z,5.43
2023-12-16T05:14:16.956Z,6.90
2023-12-16T05:14:48.425Z,6.20
2023-12-16T05:15:19.929Z,6.00
2023-12-16T05:15:52.695Z,6.20
2023-12-16T05:16:25.065Z,7.00
2023-12-16T05:16:56.538Z,6.15
2023-12-16T05:17:46.433Z,6.00
2023-12-16T05:18:19.110Z,6.32
2023-12-16T05:18:50.813Z,5.90
2023-12-16T05:19:22.451Z,6.30
2023-12-16T05:19:54.044Z,5.25
2023-12-16T05:20:25.553Z,6.63
2023-12-16T05:20:57.065Z,5.70
2023-12-16T05:21:28.550Z,6.30
2023-12-16T05:22:00.206Z,6.43
2023-12-16T05:22:34.986Z,6.50
2023-12-16T05:23:06.635Z,6.60
2023-12-16T05:23:38.221Z,7.13
2023-12-16T05:24:09.800Z,5.85
2023-12-16T05:24:41.398Z,7.10
2023-12-16T05:25:13.106Z,6.82
2023-12-16T05:25:45.277Z,5.82
2023-12-16T05:26:17.035Z,6.13
2023-12-16T05:26:48.556Z,6.80
2023-12-16T05:27:20.045Z,6.95
2023-12-16T05:27:51.606Z,7.63
2023-12-16T05:28:23.149Z,7.22
2023-12-16T05:28:54.690Z,6.43
2023-12-16T05:29:26.236Z,5.97
2023-12-16T05:29:59.512Z,5.75
2023-12-16T05:30:31.024Z,6.20
2023-12-16T05:31:02.736Z,6.65
2023-12-16T05:31:34.363Z,5.30
2023-12-16T05:32:06.495Z,6.37
2023-12-16T05:32:38.083Z,5.03
2023-12-16T05:33:09.754Z,6.32
2023-12-16T05:33:41.512Z,6.20
2023-12-16T05:34:13.168Z,7.38
2023-12-16T05:34:44.639Z,5.72
2023-12-16T05:35:16.652Z,5.68
2023-12-16T05:35:48.221Z,5.95
2023-12-16T05:36:19.820Z,7.63
2023-12-16T05:36:54.252Z,5.70
2023-12-16T05:37:25.909Z,5.57
2023-12-16T05:37:57.694Z,5.93
2023-12-16T05:38:29.201Z,5.15
2023-12-16T05:39:00.700Z,6.55
2023-12-16T05:39:32.604Z,8.85
2023-12-16T05:40:04.986Z,5.57
2023-12-16T05:40:36.593Z,5.63
2023-12-16T05:41:08.161Z,7.03
2023-12-16T05:41:39.736Z,6.43
2023-12-16T05:42:11.209Z,6.95
2023-12-16T05:42:42.720Z,6.30
2023-12-16T05:43:14.363Z,6.65
2023-12-16T05:43:45.850Z,6.47
2023-12-16T05:44:17.343Z,6.40
2023-12-16T05:44:48.830Z,6.22
2023-12-16T05:45:20.317Z,6.10
2023-12-16T05:45:51.879Z,5.55
2023-12-16T05:46:23.439Z,6.22
2023-12-16T05:46:54.994Z,6.10
2023-12-16T05:47:26.502Z,5.25
2023-12-16T05:47:58.050Z,5.63
2023-12-16T05:48:29.736Z,5.75
2023-12-16T05:49:01.423Z,6.10
2023-12-16T05:49:32.982Z,6.72
2023-12-16T05:50:23.477Z,6.35
2023-12-16T05:50:55.279Z,5.68
2023-12-16T05:51:26.730Z,6.55
2023-12-16T05:51:58.301Z,7.20
2023-12-16T05:52:30.821Z,5.72
2023-12-16T05:53:02.578Z,6.70
2023-12-16T05:53:37.503Z,5.73
2023-12-16T05:54:09.325Z,5.70
2023-12-16T05:54:41.028Z,7.05
2023-12-16T05:55:12.684Z,6.65
2023-12-16T05:55:46.867Z,5.38
2023-12-16T05:56:18.509Z,5.65
2023-12-16T05:56:50.186Z,5.20
2023-12-16T05:57:21.640Z,6.43
2023-12-16T05:57:53.128Z,6.05
2023-12-16T05:58:24.964Z,6.30
2023-12-16T05:58:56.473Z,5.60
2023-12-16T05:59:29.173Z,6.43
2023-12-16T06:00:00.673Z,7.50
2023-12-16T06:00:32.240Z,5.78
2023-12-16T06:01:05.175Z,6.13
2023-12-16T06:01:36.897Z,6.60
2023-12-16T06:02:08.425Z,6.22
2023-12-16T06:02:39.957Z,5.68
2023-12-16T06:03:11.482Z,6.82
2023-12-16T06:03:42.997Z,6.43
2023-12-16T06:04:15.515Z,6.30
2023-12-16T06:04:47.133Z,6.20
2023-12-16T06:05:18.654Z,6.00
2023-12-16T06:05:50.211Z,6.38
2023-12-16T06:06:21.744Z,6.13
2023-12-16T06:06:53.326Z,7.00
2023-12-16T06:07:24.910Z,5.93
2023-12-16T06:07:56.488Z,6.50
2023-12-16T06:08:27.964Z,6.57
2023-12-16T06:08:59.624Z,6.10
2023-12-16T06:10:38.350Z,5.03
2023-12-16T06:11:13.596Z,6.10
2023-12-16T06:11:45.252Z,6.32
2023-12-16T06:12:16.748Z,6.03
2023-12-16T06:12:48.244Z,6.03
2023-12-16T06:13:19.751Z,5.78
2023-12-16T06:13:54.264Z,6.43
2023-12-16T06:14:25.912Z,6.38
2023-12-16T06:14:57.389Z,6.25
2023-12-16T06:15:28.921Z,6.47
2023-12-16T06:16:08.116Z,6.38
2023-12-16T06:16:48.154Z,5.82
2023-12-16T06:17:19.817Z,5.43
2023-12-16T06:17:51.950Z,6.03
2023-12-16T06:18:23.693Z,6.60
2023-12-16T06:18:55.514Z,5.82
2023-12-16T06:19:28.295Z,6.28
2023-12-16T06:20:00.214Z,6.47
2023-12-16T06:20:31.999Z,6.28
2023-12-16T06:21:04.027Z,7.17
2023-12-16T06:21:35.643Z,6.22
2023-12-16T06:22:07.112Z,6.47
2023-12-16T06:22:38.738Z,7.30
2023-12-16T06:23:10.201Z,7.60
2023-12-16T06:23:41.794Z,6.82
2023-12-16T06:24:13.508Z,6.05
2023-12-16T06:24:45.109Z,5.63
2023-12-16T06:25:16.661Z,6.72
2023-12-16T06:25:48.146Z,6.13
2023-12-16T06:26:19.584Z,6.70
2023-12-16T06:26:51.169Z,6.82
2023-12-16T06:27:22.909Z,5.93
2023-12-16T06:27:54.451Z,6.50
2023-12-16T06:28:26.003Z,6.35
2023-12-16T06:28:57.624Z,5.57
2023-12-16T06:29:47.465Z,6.65
2023-12-16T06:30:19.420Z,6.47
2023-12-16T06:30:51.053Z,5.72
2023-12-16T06:31:22.683Z,6.05
2023-12-16T06:31:54.269Z,5.67
2023-12-16T06:32:25.844Z,6.15
2023-12-16T06:32:57.385Z,5.85
2023-12-16T06:33:47.838Z,7.25
2023-12-16T06:34:19.654Z,6.15
2023-12-16T06:34:51.276Z,5.68
2023-12-16T06:35:22.759Z,5.95
2023-12-16T06:35:55.307Z,5.50
2023-12-16T06:36:26.866Z,7.10
2023-12-16T06:36:58.374Z,6.07
2023-12-16T06:37:29.921Z,5.73
2023-12-16T06:38:01.450Z,6.90
2023-12-16T06:38:33.004Z,6.50
2023-12-16T06:39:04.839Z,7.18
2023-12-16T06:39:36.355Z,5.97
2023-12-16T06:40:08.812Z,6.40
2023-12-16T06:40:40.545Z,6.13
2023-12-16T06:41:12.216Z,6.20
2023-12-16T06:41:43.645Z,5.93
2023-12-16T06:42:15.156Z,6.40
2023-12-16T06:42:46.658Z,5.97
2023-12-16T06:43:18.247Z,6.07
2023-12-16T06:43:49.753Z,6.20
2023-12-16T06:44:21.248Z,7.32
2023-12-16T06:44:52.751Z,7.50
2023-12-16T06:45:24.339Z,5.97
2023-12-16T06:45:57.261Z,5.30
2023-12-16T06:46:30.449Z,6.30
2023-12-16T06:47:01.980Z,7.57
2023-12-16T06:47:33.593Z,6.68
2023-12-16T06:48:06.160Z,7.80
2023-12-16T06:48:37.903Z,6.25
2023-12-16T06:49:09.486Z,7.28
2023-12-16T06:49:41.012Z,6.00
2023-12-16T06:50:12.661Z,6.90
2023-12-16T06:50:44.171Z,6.85
2023-12-16T06:51:15.675Z,7.15
2023-12-16T06:51:47.132Z,6.13
2023-12-16T06:52:18.700Z,6.85
2023-12-16T06:52:50.201Z,6.25
2023-12-16T06:53:21.618Z,6.33
2023-12-16T06:54:11.937Z,6.97
2023-12-16T06:54:43.412Z,6.63
2023-12-16T06:55:14.959Z,6.70
2023-12-16T06:55:46.681Z,5.97
2023-12-16T06:56:18.170Z,5.95
2023-12-16T06:56:49.615Z,6.03
2023-12-16T06:57:21.091Z,6.65
2023-12-16T06:57:52.836Z,6.13
2023-12-16T06:58:24.362Z,6.13
2023-12-16T06:58:55.895Z,6.10
2023-12-16T06:59:27.383Z,6.35
2023-12-16T06:59:58.964Z,5.90
2023-12-16T07:00:30.406Z,5.82
2023-12-16T07:01:01.945Z,7.18
2023-12-16T07:01:33.564Z,6.25
2023-12-16T07:02:05.215Z,6.45
2023-12-16T07:02:42.302Z,6.60
2023-12-16T07:03:13.807Z,6.45
2023-12-16T07:03:45.350Z,6.55
2023-12-16T07:04:17.428Z,6.00
2023-12-16T07:04:49.135Z,6.15
2023-12-16T07:05:20.753Z,6.45
2023-12-16T07:05:52.353Z,7.00
2023-12-16T07:06:23.838Z,7.78
2023-12-16T07:06:55.453Z,5.20
2023-12-16T07:07:27.409Z,7.60
2023-12-16T07:08:17.660Z,5.97
2023-12-16T07:08:49.215Z,6.47
2023-12-16T07:09:20.702Z,5.43
2023-12-16T07:09:52.293Z,6.80
2023-12-16T07:10:42.672Z,5.90
2023-12-16T07:11:14.285Z,6.95
2023-12-16T07:12:04.965Z,6.28
2023-12-16T07:12:36.476Z,5.93
2023-12-16T07:13:08.343Z,7.15
2023-12-16T07:13:40.022Z,6.05
2023-12-16T07:14:11.814Z,6.70
2023-12-16T07:14:44.373Z,6.97
2023-12-16T07:15:15.948Z,7.15
2023-12-16T07:15:47.523Z,7.07
2023-12-16T07:17:07.973Z,7.78
2023-12-16T07:17:41.723Z,7.88
2023-12-16T07:18:13.710Z,6.47
2023-12-16T07:18:45.303Z,7.45
2023-12-16T07:19:16.985Z,7.47
2023-12-16T07:19:48.623Z,7.97
2023-12-16T07:20:20.268Z,6.72
2023-12-16T07:20:51.859Z,7.22
2023-12-16T07:21:23.352Z,6.27
2023-12-16T07:21:55.261Z,6.53
2023-12-16T07:22:29.047Z,6.22
2023-12-16T07:23:00.686Z,6.38
2023-12-16T07:23:34.697Z,5.95